createdAt,value
2022-09-15T00:00:47.171Z,9.23
2022-09-15T00:03:13.993Z,9.18
2022-09-15T00:05:40.773Z,8.35
2022-09-15T00:08:07.568Z,8.52
2022-09-15T00:10:34.371Z,8.43
2022-09-15T00:13:01.164Z,9.05
2022-09-15T00:15:27.940Z,8.68
2022-09-15T00:17:54.763Z,8.43
2022-09-15T00:20:21.736Z,7.80
2022-09-15T00:22:48.948Z,8.15
2022-09-15T00:25:15.796Z,8.75
2022-09-15T00:27:42.565Z,8.57
2022-09-15T00:30:09.712Z,9.68
2022-09-15T00:32:36.514Z,8.43
2022-09-15T00:35:03.528Z,8.95
2022-09-15T00:37:30.345Z,8.95
2022-09-15T00:39:57.178Z,9.02
2022-09-15T00:42:24.336Z,10.45
2022-09-15T00:44:54.178Z,9.95
2022-09-15T00:47:22.855Z,10.27
2022-09-15T00:49:58.358Z,10.35
2022-09-15T00:52:37.679Z,10.60
2022-09-15T00:55:32.619Z,8.95
2022-09-15T00:58:11.292Z,8.25
2022-09-15T01:00:39.698Z,8.40
2022-09-15T01:03:06.595Z,8.10
2022-09-15T01:05:36.912Z,8.57
2022-09-15T01:08:05.299Z,8.10
2022-09-15T01:10:34.922Z,7.65
2022-09-15T01:13:03.787Z,6.90
2022-09-15T01:15:45.899Z,6.63
2022-09-15T01:18:21.091Z,6.05
2022-09-15T01:21:06.402Z,5.40
2022-09-15T01:24:10.769Z,4.50
2022-09-15T01:26:37.574Z,4.03
2022-09-15T01:29:35.063Z,4.10
2022-09-15T01:32:34.175Z,4.22
2022-09-15T01:35:02.606Z,4.63
2022-09-15T01:37:31.079Z,3.88
2022-09-15T01:39:58.494Z,3.38
2022-09-15T01:42:25.383Z,3.63
2022-09-15T01:44:55.036Z,3.45
2022-09-15T01:47:21.834Z,3.28
2022-09-15T01:50:02.484Z,3.17
2022-09-15T01:52:29.288Z,3.45
2022-09-15T01:54:57.698Z,3.40
2022-09-15T01:57:24.526Z,3.97
2022-09-15T01:59:52.161Z,3.10
2022-09-15T02:02:39.818Z,3.38
2022-09-15T02:05:32.585Z,2.42
2022-09-15T02:08:05.448Z,2.83
2022-09-15T02:10:36.724Z,2.90
2022-09-15T02:13:34.125Z,2.70
2022-09-15T02:16:01.089Z,3.50
2022-09-15T02:18:45.236Z,3.08
2022-09-15T02:21:18.994Z,2.88
2022-09-15T02:23:51.219Z,2.47
2022-09-15T02:26:19.988Z,2.45
2022-09-15T02:28:47.504Z,2.30
2022-09-15T02:31:15.590Z,2.50
2022-09-15T02:33:45.187Z,2.17
2022-09-15T02:36:13.313Z,2.13
2022-09-15T02:38:43.773Z,2.60
2022-09-15T02:41:10.592Z,2.78
2022-09-15T02:43:45.351Z,1.90
2022-09-15T02:46:13.059Z,2.20
2022-09-15T02:48:39.898Z,2.55
2022-09-15T02:51:06.666Z,2.22
2022-09-15T02:53:34.076Z,2.30
2022-09-15T02:56:00.962Z,2.83
2022-09-15T02:58:27.727Z,2.25
2022-09-15T03:00:56.313Z,2.30
2022-09-15T03:03:23.267Z,2.30
2022-09-15T03:05:50.067Z,2.63
2022-09-15T03:08:17.120Z,3.33
2022-09-15T03:10:43.942Z,1.85
2022-09-15T03:13:10.690Z,2.28
2022-09-15T03:15:37.553Z,1.98
2022-09-15T03:18:04.566Z,2.20
2022-09-15T03:20:31.408Z,2.40
2022-09-15T03:22:58.251Z,2.78
2022-09-15T03:25:26.944Z,2.17
2022-09-15T03:27:53.861Z,1.98
2022-09-15T03:30:20.749Z,2.20
2022-09-15T03:32:48.776Z,1.70
2022-09-15T03:35:15.614Z,2.20
2022-09-15T03:37:42.435Z,2.85
2022-09-15T03:40:10.844Z,2.78
2022-09-15T03:42:37.781Z,2.55
2022-09-15T03:45:04.891Z,2.20
2022-09-15T03:47:33.122Z,2.30
2022-09-15T03:50:00.041Z,2.55
2022-09-15T03:52:26.810Z,2.35
2022-09-15T03:54:53.603Z,2.78
2022-09-15T03:57:20.439Z,2.47
2022-09-15T03:59:47.225Z,2.40
2022-09-15T04:02:14.488Z,2.50
2022-09-15T04:04:41.500Z,2.85
2022-09-15T04:07:09.186Z,2.47
2022-09-15T04:09:37.345Z,2.97
2022-09-15T04:12:04.514Z,2.03
2022-09-15T04:14:31.451Z,3.05
2022-09-15T04:16:58.197Z,2.50
2022-09-15T04:19:25.014Z,2.40
2022-09-15T04:21:51.836Z,2.15
2022-09-15T04:24:18.714Z,2.47
2022-09-15T04:26:45.491Z,2.15
2022-09-15T04:29:14.239Z,2.10
2022-09-15T04:31:41.207Z,2.22
2022-09-15T04:34:08.066Z,2.47
2022-09-15T04:36:34.859Z,2.25
2022-09-15T04:39:01.789Z,2.47
2022-09-15T04:41:28.614Z,2.40
2022-09-15T04:43:55.381Z,2.65
2022-09-15T04:46:22.250Z,2.40
2022-09-15T04:48:49.429Z,2.38
2022-09-15T04:51:21.375Z,2.47
2022-09-15T04:53:48.250Z,2.35
2022-09-15T04:56:20.153Z,2.20
2022-09-15T04:58:57.271Z,2.33
2022-09-15T05:01:28.333Z,3.30
2022-09-15T05:03:55.462Z,2.25
2022-09-15T05:06:27.006Z,1.80
2022-09-15T05:08:55.777Z,2.35
2022-09-15T05:11:22.708Z,2.10
2022-09-15T05:13:49.618Z,2.35
2022-09-15T05:16:18.816Z,1.90
2022-09-15T05:18:46.353Z,2.10
2022-09-15T05:21:14.333Z,2.30
2022-09-15T05:23:41.443Z,2.38
2022-09-15T05:26:18.654Z,2.08
2022-09-15T05:28:45.465Z,2.53
2022-09-15T05:31:13.273Z,2.47
2022-09-15T05:33:40.186Z,2.17
2022-09-15T05:36:07.322Z,2.58
2022-09-15T05:38:34.338Z,2.17
2022-09-15T05:41:08.784Z,2.15
2022-09-15T05:43:36.631Z,1.80
2022-09-15T05:46:03.717Z,2.03
2022-09-15T05:48:30.633Z,2.17
2022-09-15T05:50:57.437Z,1.75
2022-09-15T05:53:24.998Z,1.95
2022-09-15T05:55:56.173Z,1.90
2022-09-15T05:58:23.438Z,1.88
2022-09-15T06:00:50.349Z,1.75
2022-09-15T06:03:17.297Z,1.52
2022-09-15T06:05:44.150Z,1.48
2022-09-15T06:08:10.973Z,1.80
2022-09-15T06:10:37.777Z,2.10
2022-09-15T06:13:04.553Z,1.70
2022-09-15T06:15:31.534Z,2.05
2022-09-15T06:17:58.436Z,2.13
2022-09-15T06:20:25.583Z,1.83
2022-09-15T06:22:53.384Z,1.80
2022-09-15T06:25:20.198Z,1.92
2022-09-15T06:27:49.291Z,3.38
2022-09-15T06:30:16.099Z,3.33
2022-09-15T06:32:47.512Z,1.88
2022-09-15T06:35:15.468Z,1.67
2022-09-15T06:37:42.243Z,2.20
2022-09-15T06:40:09.475Z,1.67
2022-09-15T06:42:36.321Z,2.53
2022-09-15T06:45:04.402Z,1.88
2022-09-15T06:47:34.012Z,1.85
2022-09-15T06:50:01.185Z,1.58
2022-09-15T06:52:28.051Z,1.45
2022-09-15T06:54:54.976Z,1.42
2022-09-15T06:57:21.749Z,1.70
2022-09-15T06:59:48.579Z,1.40
2022-09-15T07:02:15.491Z,1.88
2022-09-15T07:04:42.315Z,1.63
2022-09-15T07:07:09.133Z,2.30
2022-09-15T07:09:38.808Z,1.08
2022-09-15T07:12:08.238Z,1.58
2022-09-15T07:14:34.997Z,1.70
2022-09-15T07:17:01.759Z,1.45
2022-09-15T07:19:28.628Z,1.90
2022-09-15T07:21:55.413Z,1.40
2022-09-15T07:24:22.207Z,1.40
2022-09-15T07:26:49.006Z,1.48
2022-09-15T07:29:15.787Z,1.08
2022-09-15T07:31:42.666Z,1.08
2022-09-15T07:34:09.559Z,1.35
2022-09-15T07:36:36.322Z,1.10
2022-09-15T07:39:03.826Z,1.50
2022-09-15T07:41:31.690Z,1.13
2022-09-15T07:43:59.329Z,1.33
2022-09-15T07:46:26.923Z,1.20
2022-09-15T07:48:56.429Z,1.50
2022-09-15T07:51:23.695Z,1.58
2022-09-15T07:53:50.790Z,1.23
2022-09-15T07:56:20.593Z,1.50
2022-09-15T07:58:47.754Z,1.33
2022-09-15T08:01:15.111Z,1.38
2022-09-15T08:03:42.881Z,1.30
2022-09-15T08:06:10.037Z,1.40
2022-09-15T08:08:38.785Z,1.42
2022-09-15T08:11:09.759Z,1.63
2022-09-15T08:13:36.621Z,1.30
2022-09-15T08:16:10.972Z,1.42
2022-09-15T08:18:38.314Z,1.30
2022-09-15T08:21:09.440Z,1.40
2022-09-15T08:23:36.354Z,1.45
2022-09-15T08:26:06.110Z,1.70
2022-09-15T08:28:33.949Z,1.80
2022-09-15T08:31:01.628Z,1.42
2022-09-15T08:33:28.982Z,1.23
2022-09-15T08:35:56.247Z,1.98
2022-09-15T08:38:23.108Z,2.13
2022-09-15T08:40:50.027Z,1.40
2022-09-15T08:43:19.198Z,1.65
2022-09-15T08:45:57.526Z,1.80
2022-09-15T08:48:29.841Z,1.40
2022-09-15T08:50:57.858Z,1.52
2022-09-15T08:53:31.244Z,1.55
2022-09-15T08:56:06.209Z,1.50
2022-09-15T08:58:35.841Z,1.88
2022-09-15T09:01:11.476Z,1.77
2022-09-15T09:03:48.310Z,1.85
2022-09-15T09:06:24.192Z,1.92
2022-09-15T09:09:02.675Z,1.90
2022-09-15T09:11:59.246Z,1.70
2022-09-15T09:14:26.015Z,1.67
2022-09-15T09:17:23.758Z,1.27
2022-09-15T09:20:03.529Z,1.33
2022-09-15T09:22:33.011Z,1.63
2022-09-15T09:25:05.883Z,1.65
2022-09-15T09:27:43.464Z,1.35
2022-09-15T09:30:15.954Z,1.25
2022-09-15T09:32:50.183Z,1.77
2022-09-15T09:35:17.014Z,1.00
2022-09-15T09:37:43.832Z,1.20
2022-09-15T09:40:16.880Z,2.00
2022-09-15T09:42:43.914Z,1.50
2022-09-15T09:45:18.419Z,1.52
2022-09-15T09:47:46.351Z,1.52
2022-09-15T09:50:39.447Z,2.05
2022-09-15T09:53:25.754Z,1.80
2022-09-15T09:55:55.293Z,1.45
2022-09-15T09:58:25.671Z,1.42
2022-09-15T10:00:52.949Z,1.60
2022-09-15T10:03:22.059Z,1.60
2022-09-15T10:06:11.855Z,1.38
2022-09-15T10:08:39.162Z,1.20
2022-09-15T10:11:08.072Z,1.30
2022-09-15T10:13:35.356Z,1.42
2022-09-15T10:16:02.934Z,1.40
2022-09-15T10:18:38.929Z,1.23
2022-09-15T10:21:06.565Z,1.52
2022-09-15T10:23:34.157Z,1.10
2022-09-15T10:26:16.363Z,1.30
2022-09-15T10:28:43.270Z,1.20
2022-09-15T10:31:24.033Z,1.55
2022-09-15T10:33:50.939Z,1.90
2022-09-15T10:36:38.603Z,1.45
2022-09-15T10:39:32.133Z,1.58
2022-09-15T10:42:17.007Z,1.38
2022-09-15T10:45:07.030Z,1.02
2022-09-15T10:47:40.042Z,1.60
2022-09-15T10:50:19.223Z,1.13
2022-09-15T10:53:14.684Z,1.50
2022-09-15T10:56:03.517Z,1.40
2022-09-15T10:58:45.855Z,1.30
2022-09-15T11:01:21.068Z,1.52
2022-09-15T11:04:09.457Z,1.25
2022-09-15T11:06:50.761Z,2.20
2022-09-15T11:09:32.574Z,2.03
2022-09-15T11:12:36.458Z,1.23
2022-09-15T11:15:15.620Z,1.27
2022-09-15T11:18:07.366Z,1.88
2022-09-15T11:20:58.489Z,1.10
2022-09-15T11:23:42.056Z,1.70
2022-09-15T11:26:19.530Z,1.35
2022-09-15T11:28:50.507Z,1.48
2022-09-15T11:31:28.258Z,1.27
2022-09-15T11:34:07.436Z,1.50
2022-09-15T11:36:44.464Z,1.73
2022-09-15T11:39:19.510Z,1.92
2022-09-15T11:41:56.388Z,1.40
2022-09-15T11:44:35.590Z,1.77
2022-09-15T11:47:05.136Z,1.55
2022-09-15T11:49:36.127Z,1.70
2022-09-15T11:52:09.049Z,1.40
2022-09-15T11:54:43.316Z,1.65
2022-09-15T11:57:23.442Z,1.77
2022-09-15T12:00:05.239Z,1.88
2022-09-15T12:02:35.081Z,1.60
2022-09-15T12:05:22.208Z,1.55
2022-09-15T12:07:55.267Z,1.80
2022-09-15T12:10:30.630Z,1.63
2022-09-15T12:12:57.928Z,1.85
2022-09-15T12:15:27.531Z,2.60
2022-09-15T12:18:27.382Z,2.08
2022-09-15T12:21:10.814Z,2.83
2022-09-15T12:23:43.539Z,1.92
2022-09-15T12:26:19.467Z,1.98
2022-09-15T12:28:56.102Z,1.70
2022-09-15T12:31:30.221Z,2.28
2022-09-15T12:34:05.105Z,2.13
2022-09-15T12:36:37.673Z,1.80
2022-09-15T12:39:19.349Z,1.65
2022-09-15T12:41:50.479Z,1.88
2022-09-15T12:44:36.185Z,1.73
2022-09-15T12:47:05.443Z,1.92
2022-09-15T12:49:37.129Z,1.80
2022-09-15T12:52:05.534Z,1.73
2022-09-15T12:54:33.798Z,1.25
2022-09-15T12:57:00.700Z,1.48
2022-09-15T12:59:28.214Z,1.80
2022-09-15T13:01:55.611Z,1.52
2022-09-15T13:04:41.158Z,1.50
2022-09-15T13:07:17.214Z,1.40
2022-09-15T13:10:10.734Z,1.30
2022-09-15T13:12:39.627Z,1.92
2022-09-15T13:15:07.578Z,1.98
2022-09-15T13:17:34.329Z,2.33
2022-09-15T13:20:07.606Z,2.00
2022-09-15T13:22:45.455Z,1.92
2022-09-15T13:25:15.849Z,2.33
2022-09-15T13:27:56.739Z,2.13
2022-09-15T13:30:45.152Z,1.50
2022-09-15T13:33:23.942Z,1.98
2022-09-15T13:39:35.382Z,1.77
2022-09-15T13:42:33.522Z,2.20
2022-09-15T13:45:22.076Z,1.92
2022-09-15T13:47:52.259Z,2.83
2022-09-15T13:50:40.182Z,2.50
2022-09-15T13:53:06.975Z,2.88
2022-09-15T13:55:38.744Z,3.00
2022-09-15T14:00:55.536Z,2.83
2022-09-15T14:03:28.245Z,2.45
2022-09-15T14:05:55.142Z,2.60
2022-09-15T14:08:28.021Z,2.22
2022-09-15T14:11:08.345Z,2.38
2022-09-15T14:13:36.380Z,2.45
2022-09-15T14:16:19.147Z,2.50
2022-09-15T14:18:46.612Z,2.90
2022-09-15T14:21:20.954Z,2.50
2022-09-15T14:23:55.312Z,2.25
2022-09-15T14:26:26.836Z,1.95
2022-09-15T14:28:58.572Z,2.38
2022-09-15T14:31:43.298Z,2.50
2022-09-15T14:34:24.334Z,2.17
2022-09-15T14:37:12.753Z,2.40
2022-09-15T14:39:43.197Z,1.80
2022-09-15T14:42:22.732Z,1.75
2022-09-15T14:47:38.862Z,1.80
2022-09-15T14:50:14.402Z,1.92
2022-09-15T14:52:45.333Z,1.85
2022-09-15T14:55:30.654Z,1.85
2022-09-15T14:58:16.708Z,2.08
2022-09-15T15:00:53.351Z,1.70
2022-09-15T15:03:38.289Z,1.98
2022-09-15T15:06:31.764Z,1.95
2022-09-15T15:09:06.366Z,3.03
2022-09-15T15:11:33.298Z,2.00
2022-09-15T15:14:00.122Z,1.90
2022-09-15T15:16:29.771Z,1.90
2022-09-15T15:18:57.229Z,2.40
2022-09-15T15:21:43.650Z,1.73
2022-09-15T15:24:17.188Z,2.10
2022-09-15T15:26:50.135Z,2.30
2022-09-15T15:29:37.262Z,1.90
2022-09-15T15:32:11.975Z,2.08
2022-09-15T15:34:38.903Z,1.85
2022-09-15T15:37:29.842Z,1.75
2022-09-15T15:39:57.455Z,1.73
2022-09-15T15:42:24.807Z,1.92
2022-09-15T15:45:09.810Z,2.33
2022-09-15T15:47:37.016Z,1.77
2022-09-15T15:50:15.384Z,1.70
2022-09-15T15:52:43.705Z,1.60
2022-09-15T15:55:13.826Z,2.05
2022-09-15T15:57:40.614Z,1.70
2022-09-15T16:00:21.368Z,1.95
2022-09-15T16:02:49.245Z,1.95
2022-09-15T16:05:16.084Z,2.30
2022-09-15T16:07:43.147Z,2.08
2022-09-15T16:10:14.713Z,2.30
2022-09-15T16:12:41.502Z,1.90
2022-09-15T16:15:19.599Z,1.80
2022-09-15T16:17:47.108Z,1.67
2022-09-15T16:20:16.161Z,2.33
2022-09-15T16:22:43.417Z,2.30
2022-09-15T16:25:45.755Z,1.70
2022-09-15T16:28:12.831Z,2.35
2022-09-15T16:30:39.623Z,1.75
2022-09-15T16:33:06.390Z,1.50
2022-09-15T16:35:51.462Z,2.13
2022-09-15T16:38:20.128Z,1.55
2022-09-15T16:40:47.794Z,1.80
2022-09-15T16:43:16.309Z,1.70
2022-09-15T16:45:43.273Z,2.20
2022-09-15T16:48:10.390Z,2.25
2022-09-15T16:50:39.897Z,1.83
2022-09-15T16:53:16.098Z,2.35
2022-09-15T16:55:53.253Z,2.40
2022-09-15T16:58:20.446Z,1.48
2022-09-15T17:00:48.470Z,1.90
2022-09-15T17:03:17.101Z,1.80
2022-09-15T17:05:50.241Z,1.50
2022-09-15T17:08:22.780Z,1.83
2022-09-15T17:10:49.843Z,1.80
2022-09-15T17:13:18.394Z,1.77
2022-09-15T17:15:45.991Z,1.50
2022-09-15T17:18:16.460Z,1.90
2022-09-15T17:20:43.838Z,1.92
2022-09-15T17:23:25.707Z,1.60
2022-09-15T17:25:58.411Z,1.40
2022-09-15T17:28:29.493Z,2.15
2022-09-15T17:30:58.309Z,1.63
2022-09-15T17:33:25.210Z,1.55
2022-09-15T17:35:52.078Z,1.70
2022-09-15T17:38:20.444Z,1.95
2022-09-15T17:40:47.930Z,1.90
2022-09-15T17:43:16.227Z,1.83
2022-09-15T17:45:43.231Z,1.77
2022-09-15T17:48:10.159Z,1.80
2022-09-15T17:50:38.330Z,1.77
2022-09-15T17:53:18.834Z,2.17
2022-09-15T17:55:45.711Z,2.15
2022-09-15T17:58:12.565Z,1.90
2022-09-15T18:00:40.756Z,2.03
2022-09-15T18:03:29.708Z,1.70
2022-09-15T18:05:58.321Z,1.90
2022-09-15T18:08:25.705Z,2.17
2022-09-15T18:10:52.634Z,1.98
2022-09-15T18:13:21.113Z,2.40
2022-09-15T18:15:49.101Z,1.70
2022-09-15T18:18:18.433Z,2.00
2022-09-15T18:20:45.261Z,2.08
2022-09-15T18:23:16.567Z,1.85
2022-09-15T18:25:44.046Z,1.42
2022-09-15T18:28:10.922Z,1.60
2022-09-15T18:30:40.715Z,1.83
2022-09-15T18:33:09.826Z,3.00
2022-09-15T18:35:36.620Z,1.83
2022-09-15T18:38:03.381Z,2.33
2022-09-15T18:40:30.215Z,2.40
2022-09-15T18:42:57.450Z,1.98
2022-09-15T18:45:24.367Z,1.40
2022-09-15T18:47:51.909Z,2.10
2022-09-15T18:50:20.349Z,2.55
2022-09-15T18:52:47.204Z,2.05
2022-09-15T18:55:16.212Z,1.40
2022-09-15T18:57:43.321Z,2.72
2022-09-15T19:00:23.061Z,1.63
2022-09-15T19:02:49.982Z,1.52
2022-09-15T19:05:17.197Z,1.70
2022-09-15T19:07:44.443Z,1.75
2022-09-15T19:10:11.815Z,1.90
2022-09-15T19:12:38.809Z,1.92
2022-09-15T19:15:10.620Z,1.50
2022-09-15T19:17:38.334Z,2.30
2022-09-15T19:20:06.854Z,2.10
2022-09-15T19:22:33.729Z,1.52
2022-09-15T19:25:00.574Z,1.67
2022-09-15T19:27:27.323Z,1.77
2022-09-15T19:29:54.086Z,2.10
2022-09-15T19:32:22.233Z,2.03
2022-09-15T19:34:49.066Z,1.92
2022-09-15T19:37:18.892Z,2.00
2022-09-15T19:39:46.554Z,1.90
2022-09-15T19:44:41.460Z,1.25
2022-09-15T19:47:08.552Z,1.63
2022-09-15T19:49:35.997Z,1.70
2022-09-15T19:52:02.925Z,2.20
2022-09-15T19:54:30.129Z,2.15
2022-09-15T19:56:57.123Z,1.98
2022-09-15T19:59:28.742Z,2.13
2022-09-15T20:01:57.817Z,1.73
2022-09-15T20:04:24.740Z,2.00
2022-09-15T20:06:51.922Z,2.00
2022-09-15T20:09:18.834Z,2.35
2022-09-15T20:11:45.707Z,2.40
2022-09-15T20:14:12.590Z,2.00
2022-09-15T20:16:39.591Z,1.60
2022-09-15T20:19:06.558Z,1.80
2022-09-15T20:21:51.490Z,2.08
2022-09-15T20:24:18.951Z,2.00
2022-09-15T20:26:46.762Z,1.70
2022-09-15T20:29:13.620Z,2.45
2022-09-15T20:31:40.697Z,2.22
2022-09-15T20:34:07.487Z,2.20
2022-09-15T20:36:36.099Z,1.83
2022-09-15T20:39:04.093Z,2.28
2022-09-15T20:41:32.122Z,1.50
2022-09-15T20:43:59.259Z,1.77
2022-09-15T20:46:26.293Z,2.13
2022-09-15T20:48:53.381Z,1.90
2022-09-15T20:51:24.496Z,1.80
2022-09-15T20:53:53.155Z,1.65
2022-09-15T20:56:23.205Z,1.48
2022-09-15T20:58:50.410Z,1.67
2022-09-15T21:01:22.458Z,1.67
2022-09-15T21:03:49.507Z,1.33
2022-09-15T21:06:18.194Z,1.75
2022-09-15T21:08:45.434Z,1.27
2022-09-15T21:11:12.341Z,1.60
2022-09-15T21:13:40.467Z,1.40
2022-09-15T21:16:12.518Z,1.52
2022-09-15T21:18:39.802Z,1.80
2022-09-15T21:21:10.220Z,1.75
2022-09-15T21:23:40.281Z,1.45
2022-09-15T21:26:09.126Z,2.20
2022-09-15T21:28:35.997Z,1.30
2022-09-15T21:31:08.530Z,1.35
2022-09-15T21:33:35.997Z,1.20
2022-09-15T21:36:17.527Z,1.60
2022-09-15T21:38:44.595Z,2.42
2022-09-15T21:41:13.806Z,1.52
2022-09-15T21:43:41.319Z,1.60
2022-09-15T21:46:13.608Z,1.40
2022-09-15T21:48:40.605Z,1.23
2022-09-15T21:51:07.921Z,3.08
2022-09-15T21:53:37.802Z,1.60
2022-09-15T21:56:06.364Z,1.33
2022-09-15T21:58:39.087Z,1.20
2022-09-15T22:01:19.347Z,1.60
2022-09-15T22:03:53.050Z,1.27
2022-09-15T22:06:21.017Z,1.40
2022-09-15T22:08:47.895Z,0.90
2022-09-15T22:11:14.814Z,1.20
2022-09-15T22:13:42.955Z,1.27
2022-09-15T22:16:14.905Z,1.60
2022-09-15T22:18:42.158Z,1.83
2022-09-15T22:21:18.776Z,1.17
2022-09-15T22:23:46.182Z,1.35
2022-09-15T22:26:20.825Z,1.92
2022-09-15T22:28:47.666Z,1.60
2022-09-15T22:31:15.563Z,1.65
2022-09-15T22:33:42.513Z,1.38
2022-09-15T22:36:11.165Z,2.42
2022-09-15T22:38:38.463Z,1.45
2022-09-15T22:41:06.686Z,1.13
2022-09-15T22:43:33.696Z,1.10
2022-09-15T22:46:00.682Z,1.30
2022-09-15T22:48:28.009Z,1.35
2022-09-15T22:50:54.877Z,1.02
2022-09-15T22:53:23.414Z,1.42
2022-09-15T22:56:06.655Z,1.58
2022-09-15T22:58:34.080Z,1.23
2022-09-15T23:01:14.316Z,1.83
2022-09-15T23:03:41.353Z,1.70
2022-09-15T23:06:08.566Z,1.50
2022-09-15T23:08:36.686Z,1.40
2022-09-15T23:11:08.975Z,2.10
2022-09-15T23:13:35.801Z,1.17
2022-09-15T23:16:02.780Z,1.65
2022-09-15T23:18:29.996Z,1.38
2022-09-15T23:21:00.169Z,1.30
2022-09-15T23:23:26.991Z,1.48
2022-09-15T23:25:54.007Z,1.25
2022-09-15T23:28:20.979Z,1.67
2022-09-15T23:30:51.897Z,1.75
2022-09-15T23:33:19.013Z,1.55
2022-09-15T23:35:46.225Z,1.58
2022-09-15T23:38:13.267Z,1.08
2022-09-15T23:40:43.080Z,1.60
2022-09-15T23:43:13.036Z,1.35
2022-09-15T23:45:39.902Z,1.25
2022-09-15T23:48:08.132Z,1.45
2022-09-15T23:50:35.460Z,1.33
2022-09-15T23:53:02.334Z,1.38
2022-09-15T23:55:29.128Z,1.40
2022-09-15T23:57:55.942Z,1.48
